Time;durP1;ratioP1;P1;durP2;ratioP2;P2;SDS_P1;SDS_P2;PMS_P1;PMS_P2;Temp;Humidity;BMP_temperature;BMP_pressure;BME280_temperature;BME280_humidity;BME280_pressure;Samples;Min_cycle;Max_cycle;Signal;HPM_P1;HPM_P2
2022/01/08 00:01:14;;;;;;;0.10;0.10;;;;;;;;;;5079122;28;20209;-76
2022/01/08 00:03:43;;;;;;;0.00;0.00;;;;;;;;;;5075891;28;20332;-76
2022/01/08 00:06:12;;;;;;;0.23;0.20;;;;;;;;;;5086373;28;20289;-75
2022/01/08 00:08:40;;;;;;;0.10;0.10;;;;;;;;;;5072521;28;20215;-74
2022/01/08 00:11:13;;;;;;;0.07;0.07;;;;;;;;;;5074871;28;20267;-76
2022/01/08 00:13:46;;;;;;;0.00;0.00;;;;;;;;;;5070496;28;20634;-74
2022/01/08 00:16:16;;;;;;;0.00;0.00;;;;;;;;;;5075007;28;20198;-74
2022/01/08 00:18:44;;;;;;;0.00;0.00;;;;;;;;;;5075259;28;20217;-74
2022/01/08 00:21:13;;;;;;;0.30;0.30;;;;;;;;;;5075766;28;20203;-77
2022/01/08 00:23:41;;;;;;;0.30;0.20;;;;;;;;;;5075908;28;20257;-78
2022/01/08 00:26:10;;;;;;;0.30;0.23;;;;;;;;;;5078799;28;20248;-74
2022/01/08 00:28:38;;;;;;;0.23;0.23;;;;;;;;;;5075285;28;20219;-76
2022/01/08 00:31:10;;;;;;;0.10;0.10;;;;;;;;;;5091655;28;20206;-76
2022/01/08 00:33:39;;;;;;;0.10;0.10;;;;;;;;;;5074496;28;20202;-76
2022/01/08 00:36:08;;;;;;;0.10;0.10;;;;;;;;;;5075121;28;20202;-77
2022/01/08 00:38:37;;;;;;;0.20;0.20;;;;;;;;;;5075004;28;20287;-74
2022/01/08 00:41:05;;;;;;;0.43;0.40;;;;;;;;;;5075234;28;20206;-75
2022/01/08 00:43:34;;;;;;;0.00;0.00;;;;;;;;;;5075177;28;20206;-76
2022/01/08 00:46:02;;;;;;;0.37;0.30;;;;;;;;;;5075861;28;20857;-75
2022/01/08 00:48:31;;;;;;;0.10;0.10;;;;;;;;;;5075004;28;20807;-78
2022/01/08 00:51:00;;;;;;;0.37;0.23;;;;;;;;;;5075390;28;20203;-74
2022/01/08 00:53:29;;;;;;;0.40;0.30;;;;;;;;;;5075472;28;20579;-75
2022/01/08 00:55:57;;;;;;;0.07;0.07;;;;;;;;;;5086152;28;20197;-74
2022/01/08 00:58:27;;;;;;;0.40;0.30;;;;;;;;;;5079932;28;20261;-74
2022/01/08 01:00:55;;;;;;;0.30;0.30;;;;;;;;;;5073200;28;20208;-74
2022/01/08 01:03:24;;;;;;;0.40;0.30;;;;;;;;;;5074839;28;20238;-75
2022/01/08 01:05:52;;;;;;;0.10;0.10;;;;;;;;;;5075330;28;20677;-75
2022/01/08 01:08:22;;;;;;;0.43;0.20;;;;;;;;;;5072508;28;20275;-76
2022/01/08 01:10:50;;;;;;;0.00;0.00;;;;;;;;;;5070619;28;20211;-75
2022/01/08 01:13:19;;;;;;;0.20;0.20;;;;;;;;;;5086327;28;20259;-77
2022/01/08 01:15:47;;;;;;;0.00;0.00;;;;;;;;;;5074361;28;20730;-77
2022/01/08 01:18:16;;;;;;;1.00;0.57;;;;;;;;;;5073876;28;20222;-77
2022/01/08 01:20:46;;;;;;;0.10;0.10;;;;;;;;;;5074265;28;20210;-75
2022/01/08 01:23:20;;;;;;;0.10;0.10;;;;;;;;;;5074799;28;20252;-76
2022/01/08 01:25:53;;;;;;;0.47;0.40;;;;;;;;;;5074525;28;20210;-76
2022/01/08 01:42:41;;;;;;;0.37;0.30;;;;;;;;;;5074009;28;20237;-75
2022/01/08 01:47:57;;;;;;;0.20;0.10;;;;;;;;;;5077291;28;20218;-76
2022/01/08 01:50:26;;;;;;;0.13;0.13;;;;;;;;;;5093993;28;20662;-75
2022/01/08 01:52:54;;;;;;;0.00;0.00;;;;;;;;;;5092673;28;20201;-76
2022/01/08 01:55:23;;;;;;;0.00;0.00;;;;;;;;;;5094041;28;20732;-74
2022/01/08 01:57:54;;;;;;;0.10;0.10;;;;;;;;;;5093939;28;20303;-74
2022/01/08 02:00:23;;;;;;;0.00;0.00;;;;;;;;;;5073382;28;20245;-74
2022/01/08 02:02:51;;;;;;;0.00;0.00;;;;;;;;;;5076190;28;20256;-76
2022/01/08 02:05:19;;;;;;;0.00;0.00;;;;;;;;;;5090037;28;20209;-76
2022/01/08 02:07:48;;;;;;;0.10;0.10;;;;;;;;;;5073766;28;20264;-77
2022/01/08 02:10:16;;;;;;;0.00;0.00;;;;;;;;;;5073857;28;20264;-77
2022/01/08 02:12:45;;;;;;;0.20;0.20;;;;;;;;;;5085443;28;20201;-73
2022/01/08 02:15:14;;;;;;;0.00;0.00;;;;;;;;;;5064354;28;20203;-75
2022/01/08 02:17:43;;;;;;;0.27;0.20;;;;;;;;;;5075994;28;20276;-77
2022/01/08 02:20:13;;;;;;;0.10;0.10;;;;;;;;;;5072832;28;20256;-74
2022/01/08 02:22:42;;;;;;;0.00;0.00;;;;;;;;;;5092435;28;20210;-75
2022/01/08 02:25:10;;;;;;;0.10;0.10;;;;;;;;;;5093654;28;20210;-77
2022/01/08 02:27:39;;;;;;;0.00;0.00;;;;;;;;;;5075039;28;20272;-76
2022/01/08 02:30:07;;;;;;;0.10;0.10;;;;;;;;;;5072731;28;20194;-76
2022/01/08 02:32:38;;;;;;;0.00;0.00;;;;;;;;;;5079368;28;20264;-77
2022/01/08 02:35:06;;;;;;;0.00;0.00;;;;;;;;;;5055317;28;20226;-76
2022/01/08 02:37:36;;;;;;;0.57;0.43;;;;;;;;;;5071991;28;20284;-76
2022/01/08 02:40:07;;;;;;;0.40;0.33;;;;;;;;;;5073392;28;20227;-76
2022/01/08 02:42:40;;;;;;;0.30;0.20;;;;;;;;;;5073824;28;20191;-76
2022/01/08 02:45:09;;;;;;;0.13;0.10;;;;;;;;;;5072957;28;20210;-74
2022/01/08 02:47:37;;;;;;;0.00;0.00;;;;;;;;;;5073393;28;20227;-77
2022/01/08 02:50:06;;;;;;;0.43;0.40;;;;;;;;;;5083107;28;20281;-74
2022/01/08 02:52:34;;;;;;;1.03;0.40;;;;;;;;;;5093810;28;20259;-74
2022/01/08 02:55:04;;;;;;;0.30;0.20;;;;;;;;;;5084417;28;20723;-75
2022/01/08 02:57:34;;;;;;;0.67;0.47;;;;;;;;;;5072684;28;20271;-74
2022/01/08 03:00:03;;;;;;;0.43;0.33;;;;;;;;;;5072331;28;20315;-74
2022/01/08 03:02:31;;;;;;;0.23;0.20;;;;;;;;;;5072112;28;20204;-77
2022/01/08 03:05:05;;;;;;;0.37;0.23;;;;;;;;;;5073622;28;20223;-77
2022/01/08 03:07:33;;;;;;;0.10;0.10;;;;;;;;;;5073225;28;20686;-77
2022/01/08 03:10:01;;;;;;;0.00;0.00;;;;;;;;;;5071268;28;20203;-74
2022/01/08 03:12:31;;;;;;;0.30;0.30;;;;;;;;;;5073140;28;20194;-77
2022/01/08 03:15:00;;;;;;;0.37;0.37;;;;;;;;;;5078517;28;20698;-74
2022/01/08 03:17:28;;;;;;;0.57;0.43;;;;;;;;;;5093250;28;20221;-74
2022/01/08 03:20:05;;;;;;;1.07;0.77;;;;;;;;;;5076245;28;20276;-71
2022/01/08 03:22:34;;;;;;;0.30;0.30;;;;;;;;;;5052909;28;20353;-75
2022/01/08 03:25:03;;;;;;;0.57;0.37;;;;;;;;;;5062262;28;20198;-76
2022/01/08 03:27:33;;;;;;;0.60;0.47;;;;;;;;;;5072788;28;20273;-74
2022/01/08 03:30:01;;;;;;;0.30;0.27;;;;;;;;;;5066654;28;20198;-74
2022/01/08 03:32:30;;;;;;;0.73;0.57;;;;;;;;;;5089363;28;20218;-78
2022/01/08 03:34:58;;;;;;;0.37;0.37;;;;;;;;;;5073069;28;20255;-77
2022/01/08 03:37:27;;;;;;;0.20;0.20;;;;;;;;;;5072403;28;20219;-74
2022/01/08 03:39:55;;;;;;;1.10;0.40;;;;;;;;;;5073115;28;20264;-74
2022/01/08 03:42:24;;;;;;;0.57;0.37;;;;;;;;;;5074157;28;20212;-73
2022/01/08 03:44:53;;;;;;;0.10;0.10;;;;;;;;;;5078231;28;20255;-76
2022/01/08 03:47:29;;;;;;;0.43;0.17;;;;;;;;;;5076063;28;20262;-76
2022/01/08 03:49:58;;;;;;;0.40;0.37;;;;;;;;;;5095330;28;20606;-73
2022/01/08 03:52:32;;;;;;;0.13;0.13;;;;;;;;;;5090370;28;20186;-73
2022/01/08 03:55:00;;;;;;;0.33;0.33;;;;;;;;;;5096406;28;20197;-74
2022/01/08 03:57:28;;;;;;;0.63;0.57;;;;;;;;;;5093059;28;20226;-75
2022/01/08 03:59:58;;;;;;;0.20;0.20;;;;;;;;;;5074903;28;20280;-73
2022/01/08 04:02:27;;;;;;;0.87;0.67;;;;;;;;;;5066356;28;20202;-76
2022/01/08 04:04:55;;;;;;;1.33;0.87;;;;;;;;;;5075496;28;20263;-75
2022/01/08 04:07:23;;;;;;;2.43;1.80;;;;;;;;;;5071303;28;20223;-76
2022/01/08 04:09:52;;;;;;;0.63;0.57;;;;;;;;;;5076012;28;20606;-75
2022/01/08 04:12:30;;;;;;;1.90;1.00;;;;;;;;;;5085964;28;20631;-76
2022/01/08 04:15:06;;;;;;;1.30;0.97;;;;;;;;;;5075414;28;20666;-76
2022/01/08 04:17:35;;;;;;;0.57;0.47;;;;;;;;;;5075902;28;20822;-73
2022/01/08 04:20:04;;;;;;;0.77;0.53;;;;;;;;;;5075597;28;20366;-77
2022/01/08 04:22:32;;;;;;;0.60;0.43;;;;;;;;;;5075933;28;20607;-75
2022/01/08 04:25:00;;;;;;;0.67;0.50;;;;;;;;;;5075767;28;20191;-75
2022/01/08 04:27:29;;;;;;;0.63;0.47;;;;;;;;;;5079001;28;20268;-77
2022/01/08 04:29:57;;;;;;;0.30;0.30;;;;;;;;;;5075277;28;20209;-73
2022/01/08 04:32:27;;;;;;;2.13;0.93;;;;;;;;;;5075802;28;20630;-75
2022/01/08 04:34:58;;;;;;;1.50;1.10;;;;;;;;;;5075767;28;20198;-75
2022/01/08 04:37:26;;;;;;;1.93;0.87;;;;;;;;;;5075239;28;20235;-76
2022/01/08 04:39:54;;;;;;;1.07;0.97;;;;;;;;;;5074988;28;20214;-72
2022/01/08 04:42:23;;;;;;;1.13;0.93;;;;;;;;;;5075413;28;20202;-74
2022/01/08 04:44:52;;;;;;;2.27;0.67;;;;;;;;;;5075160;28;20210;-78
2022/01/08 04:47:21;;;;;;;1.20;0.77;;;;;;;;;;5083835;28;20230;-75
2022/01/08 04:49:51;;;;;;;0.47;0.40;;;;;;;;;;5076238;28;20206;-72
2022/01/08 04:52:19;;;;;;;2.33;0.83;;;;;;;;;;5073555;28;20199;-76
2022/01/08 04:54:47;;;;;;;1.80;1.27;;;;;;;;;;5074941;28;20213;-76
2022/01/08 04:57:16;;;;;;;1.20;0.83;;;;;;;;;;5075221;28;20634;-74
2022/01/08 04:59:44;;;;;;;1.33;0.90;;;;;;;;;;5070222;28;20195;-76
2022/01/08 05:02:13;;;;;;;1.60;1.07;;;;;;;;;;5069636;28;20260;-74
2022/01/08 05:04:41;;;;;;;1.90;1.00;;;;;;;;;;5075049;28;20203;-75
2022/01/08 05:07:12;;;;;;;0.77;0.67;;;;;;;;;;5074599;28;20720;-75
2022/01/08 05:09:40;;;;;;;2.13;1.43;;;;;;;;;;5073570;28;20217;-73
2022/01/08 05:12:09;;;;;;;1.33;0.83;;;;;;;;;;5074750;28;20204;-74
2022/01/08 05:14:38;;;;;;;0.57;0.50;;;;;;;;;;5074581;28;20213;-73
2022/01/08 05:17:07;;;;;;;2.53;1.80;;;;;;;;;;5077582;28;20234;-75
2022/01/08 05:19:43;;;;;;;1.93;0.90;;;;;;;;;;5074502;28;20249;-76
2022/01/08 05:22:21;;;;;;;2.47;1.73;;;;;;;;;;5094307;28;20543;-74
2022/01/08 05:24:50;;;;;;;2.33;1.60;;;;;;;;;;5075014;28;20233;-76
2022/01/08 05:27:18;;;;;;;1.80;1.33;;;;;;;;;;5072191;28;20278;-75
2022/01/08 05:29:48;;;;;;;1.80;1.40;;;;;;;;;;5071750;28;20205;-77
2022/01/08 05:32:17;;;;;;;2.53;1.60;;;;;;;;;;5074057;28;20198;-74
2022/01/08 05:34:46;;;;;;;2.93;1.40;;;;;;;;;;5091284;28;20208;-74
2022/01/08 05:37:16;;;;;;;2.93;1.33;;;;;;;;;;5074202;28;20225;-75
2022/01/08 05:39:45;;;;;;;2.47;1.70;;;;;;;;;;5073846;28;20210;-74
2022/01/08 05:42:13;;;;;;;2.53;1.33;;;;;;;;;;5073406;28;20229;-75
2022/01/08 05:44:42;;;;;;;1.70;1.40;;;;;;;;;;5073617;28;20730;-76
2022/01/08 05:47:11;;;;;;;1.40;0.87;;;;;;;;;;5074138;28;20234;-76
2022/01/08 05:49:39;;;;;;;0.60;0.43;;;;;;;;;;5087995;28;20236;-74
2022/01/08 05:52:08;;;;;;;2.70;2.00;;;;;;;;;;5071976;28;20193;-73
2022/01/08 05:54:39;;;;;;;1.80;1.10;;;;;;;;;;5087511;28;20194;-72
2022/01/08 05:57:08;;;;;;;0.60;0.50;;;;;;;;;;5073373;28;20218;-75
2022/01/08 05:59:37;;;;;;;0.97;0.60;;;;;;;;;;5073123;28;20197;-76
2022/01/08 06:02:08;;;;;;;1.70;0.97;;;;;;;;;;5073963;28;20565;-74
2022/01/08 06:04:37;;;;;;;2.30;1.37;;;;;;;;;;5078403;28;20201;-74
2022/01/08 06:07:05;;;;;;;2.37;1.43;;;;;;;;;;5075035;28;20252;-75
2022/01/08 06:09:34;;;;;;;2.10;1.17;;;;;;;;;;5076758;28;20201;-74
2022/01/08 06:12:04;;;;;;;2.93;1.23;;;;;;;;;;5057327;28;20198;-76
2022/01/08 06:14:32;;;;;;;2.27;1.67;;;;;;;;;;5073976;28;20267;-74
2022/01/08 06:17:01;;;;;;;2.33;1.40;;;;;;;;;;5073486;28;20233;-74
2022/01/08 06:19:29;;;;;;;1.27;0.83;;;;;;;;;;5075280;28;20201;-75
2022/01/08 06:21:57;;;;;;;3.20;1.23;;;;;;;;;;5073579;28;20271;-74
2022/01/08 06:24:26;;;;;;;1.90;1.50;;;;;;;;;;5053315;28;20215;-74
2022/01/08 06:26:54;;;;;;;1.80;1.33;;;;;;;;;;5070371;28;20262;-72
2022/01/08 06:29:24;;;;;;;2.10;1.70;;;;;;;;;;5090779;28;20200;-73
2022/01/08 06:31:53;;;;;;;3.80;2.43;;;;;;;;;;5058443;28;20251;-72
2022/01/08 06:34:21;;;;;;;3.70;2.43;;;;;;;;;;5081410;28;20205;-75
2022/01/08 06:36:50;;;;;;;1.37;0.83;;;;;;;;;;5073137;28;20278;-75
2022/01/08 06:39:18;;;;;;;1.30;0.83;;;;;;;;;;5076764;28;20611;-75
2022/01/08 06:41:47;;;;;;;2.13;1.70;;;;;;;;;;5072799;28;20683;-75
2022/01/08 06:44:15;;;;;;;2.03;1.50;;;;;;;;;;5089094;28;20729;-74
2022/01/08 06:46:45;;;;;;;1.80;1.17;;;;;;;;;;5084824;28;20198;-72
2022/01/08 06:49:13;;;;;;;3.87;2.43;;;;;;;;;;5072471;28;20711;-72
2022/01/08 06:51:42;;;;;;;2.87;1.87;;;;;;;;;;5068173;28;20194;-72
2022/01/08 06:54:10;;;;;;;3.23;1.90;;;;;;;;;;5073248;28;20251;-72
2022/01/08 06:56:39;;;;;;;2.80;1.93;;;;;;;;;;5073233;28;20213;-74
2022/01/08 06:59:07;;;;;;;2.43;1.33;;;;;;;;;;5071644;28;20201;-74
2022/01/08 07:01:36;;;;;;;2.93;1.80;;;;;;;;;;5072435;28;20761;-75
2022/01/08 07:04:05;;;;;;;5.50;2.73;;;;;;;;;;5084692;28;20200;-72
2022/01/08 07:06:34;;;;;;;1.37;0.77;;;;;;;;;;5076196;28;20278;-75
2022/01/08 07:09:02;;;;;;;3.97;2.33;;;;;;;;;;5083134;28;20660;-74
2022/01/08 07:11:31;;;;;;;3.90;2.37;;;;;;;;;;5075427;28;20724;-73
2022/01/08 07:13:59;;;;;;;4.13;2.33;;;;;;;;;;5080930;28;20196;-74
2022/01/08 07:16:32;;;;;;;3.30;2.30;;;;;;;;;;5071993;28;20201;-72
2022/01/08 07:19:00;;;;;;;2.83;2.20;;;;;;;;;;5079444;28;20609;-73
2022/01/08 07:21:30;;;;;;;4.63;3.10;;;;;;;;;;5076069;28;20663;-72
2022/01/08 07:23:58;;;;;;;2.33;1.50;;;;;;;;;;5076378;28;20247;-73
2022/01/08 07:26:27;;;;;;;4.60;2.63;;;;;;;;;;5074629;28;20257;-73
2022/01/08 07:28:55;;;;;;;2.73;1.70;;;;;;;;;;5079679;28;20744;-72
2022/01/08 07:31:24;;;;;;;0.83;0.67;;;;;;;;;;5074040;28;20195;-73
2022/01/08 07:33:52;;;;;;;3.47;2.13;;;;;;;;;;5075927;28;20550;-73
2022/01/08 07:36:22;;;;;;;1.20;1.03;;;;;;;;;;5071545;28;20220;-72
2022/01/08 07:38:52;;;;;;;3.60;1.60;;;;;;;;;;5079892;28;20280;-73
2022/01/08 07:41:20;;;;;;;0.90;0.57;;;;;;;;;;5077250;28;20193;-74
2022/01/08 07:43:48;;;;;;;2.30;0.97;;;;;;;;;;5075506;28;20221;-73
2022/01/08 07:46:17;;;;;;;1.80;1.30;;;;;;;;;;5075985;28;20206;-72
2022/01/08 07:48:45;;;;;;;2.03;1.60;;;;;;;;;;5080612;28;20295;-72
2022/01/08 07:51:14;;;;;;;4.33;2.63;;;;;;;;;;5075256;28;20198;-73
2022/01/08 07:53:42;;;;;;;2.43;1.40;;;;;;;;;;5076049;28;20545;-72
2022/01/08 07:56:12;;;;;;;1.20;0.83;;;;;;;;;;5075627;28;20207;-71
2022/01/08 07:58:40;;;;;;;5.73;2.57;;;;;;;;;;5073148;28;20709;-73
2022/01/08 08:01:09;;;;;;;3.90;2.43;;;;;;;;;;5073478;28;20209;-73
2022/01/08 08:03:37;;;;;;;3.80;2.73;;;;;;;;;;5070793;28;20282;-71
2022/01/08 08:06:10;;;;;;;4.60;2.70;;;;;;;;;;5073030;28;20213;-72
2022/01/08 08:08:39;;;;;;;4.73;2.93;;;;;;;;;;5074413;28;20226;-72
2022/01/08 08:11:07;;;;;;;2.83;1.70;;;;;;;;;;5074708;28;20661;-72
2022/01/08 08:13:39;;;;;;;4.50;2.67;;;;;;;;;;5074585;28;20248;-72
2022/01/08 08:16:08;;;;;;;5.93;3.90;;;;;;;;;;5074461;28;20257;-73
2022/01/08 08:18:37;;;;;;;6.90;4.13;;;;;;;;;;5069623;28;20257;-72
2022/01/08 08:21:05;;;;;;;5.10;3.30;;;;;;;;;;5078319;28;20205;-72
2022/01/08 08:23:34;;;;;;;6.10;4.03;;;;;;;;;;5073557;28;20279;-72
2022/01/08 08:26:02;;;;;;;6.30;3.70;;;;;;;;;;5074801;28;20217;-72
2022/01/08 08:28:30;;;;;;;4.03;2.53;;;;;;;;;;5074716;28;20291;-72
2022/01/08 08:31:00;;;;;;;7.53;3.70;;;;;;;;;;5070670;28;20260;-73
2022/01/08 08:33:29;;;;;;;3.20;2.13;;;;;;;;;;5069892;28;20210;-72
2022/01/08 08:35:57;;;;;;;3.00;2.43;;;;;;;;;;5075946;28;20220;-73
2022/01/08 08:38:25;;;;;;;4.60;2.37;;;;;;;;;;5066187;28;20230;-71
2022/01/08 08:40:54;;;;;;;2.53;1.90;;;;;;;;;;5076857;28;20258;-76
2022/01/08 08:43:23;;;;;;;2.47;1.40;;;;;;;;;;5073258;28;20272;-72
2022/01/08 08:45:51;;;;;;;4.23;2.43;;;;;;;;;;5076721;28;20717;-74
2022/01/08 08:48:21;;;;;;;3.13;2.10;;;;;;;;;;5073093;28;20274;-71
2022/01/08 08:50:50;;;;;;;2.83;2.27;;;;;;;;;;5068431;28;20704;-72
2022/01/08 08:53:18;;;;;;;2.53;1.93;;;;;;;;;;5071807;28;20191;-74
2022/01/08 08:55:48;;;;;;;1.33;1.23;;;;;;;;;;5070043;28;20202;-72
2022/01/08 08:58:16;;;;;;;2.70;2.20;;;;;;;;;;5086715;28;20230;-72
2022/01/08 09:00:44;;;;;;;1.10;0.97;;;;;;;;;;5088500;28;20252;-74
2022/01/08 09:03:13;;;;;;;1.13;1.03;;;;;;;;;;5079242;28;20219;-73
2022/01/08 09:05:43;;;;;;;2.03;1.13;;;;;;;;;;5075038;28;20237;-74
2022/01/08 09:08:11;;;;;;;2.20;1.03;;;;;;;;;;5079490;28;20759;-73
2022/01/08 09:10:40;;;;;;;1.03;0.93;;;;;;;;;;5080868;28;20323;-73
2022/01/08 09:13:08;;;;;;;2.00;1.80;;;;;;;;;;5077221;28;20611;-75
2022/01/08 09:15:41;;;;;;;1.80;1.27;;;;;;;;;;5076934;28;20200;-73
2022/01/08 09:18:10;;;;;;;1.13;0.63;;;;;;;;;;5072090;28;20274;-74
2022/01/08 09:20:38;;;;;;;1.00;0.83;;;;;;;;;;5065179;28;20213;-72
2022/01/08 09:23:08;;;;;;;1.13;0.67;;;;;;;;;;5080640;28;20224;-74
2022/01/08 09:25:37;;;;;;;1.03;0.77;;;;;;;;;;5074255;28;20741;-71
2022/01/08 09:28:05;;;;;;;0.97;0.67;;;;;;;;;;5060957;28;20635;-75
2022/01/08 09:30:34;;;;;;;1.80;0.87;;;;;;;;;;5072603;28;20204;-73
2022/01/08 09:33:03;;;;;;;0.57;0.57;;;;;;;;;;5062772;28;20208;-73
2022/01/08 09:35:31;;;;;;;0.57;0.57;;;;;;;;;;5061911;28;20221;-73
2022/01/08 09:38:00;;;;;;;0.57;0.50;;;;;;;;;;5073636;28;20277;-75
2022/01/08 09:40:30;;;;;;;0.43;0.40;;;;;;;;;;5076680;28;20211;-75
2022/01/08 09:42:58;;;;;;;0.73;0.67;;;;;;;;;;5070497;28;20263;-73
2022/01/08 09:45:27;;;;;;;0.73;0.67;;;;;;;;;;5076038;28;20270;-73
2022/01/08 09:47:55;;;;;;;0.30;0.30;;;;;;;;;;5061887;28;20222;-73
2022/01/08 09:50:24;;;;;;;0.30;0.20;;;;;;;;;;5072121;28;20254;-74
2022/01/08 09:52:57;;;;;;;0.53;0.30;;;;;;;;;;5068757;28;20212;-75
2022/01/08 09:55:26;;;;;;;0.40;0.30;;;;;;;;;;5071143;28;20200;-75
2022/01/08 09:57:56;;;;;;;0.00;0.00;;;;;;;;;;4728309;28;10001041;-75
2022/01/08 10:00:25;;;;;;;0.00;0.00;;;;;;;;;;5069558;28;20517;-77
2022/01/08 10:02:54;;;;;;;0.40;0.30;;;;;;;;;;5068670;28;20617;-75
2022/01/08 10:05:22;;;;;;;0.00;0.00;;;;;;;;;;5070317;28;20583;-76
2022/01/08 10:08:02;;;;;;;0.27;0.20;;;;;;;;;;5069766;28;20228;-74
2022/01/08 10:10:31;;;;;;;0.00;0.00;;;;;;;;;;5069808;28;20207;-74
2022/01/08 10:13:01;;;;;;;0.00;0.00;;;;;;;;;;5069964;28;20674;-75
2022/01/08 10:18:23;;;;;;;0.00;0.00;;;;;;;;;;5070574;28;20230;-74
2022/01/08 10:20:51;;;;;;;0.00;0.00;;;;;;;;;;5070635;28;20208;-76
2022/01/08 10:23:20;;;;;;;0.00;0.00;;;;;;;;;;5070375;28;20234;-73
2022/01/08 10:25:59;;;;;;;0.10;0.10;;;;;;;;;;5070171;28;20674;-73
2022/01/08 10:28:35;;;;;;;0.00;0.00;;;;;;;;;;5070099;28;20282;-74
2022/01/08 10:31:08;;;;;;;0.00;0.00;;;;;;;;;;5054180;28;20770;-76
2022/01/08 10:33:36;;;;;;;0.00;0.00;;;;;;;;;;5069876;28;20205;-77
2022/01/08 10:36:05;;;;;;;0.00;0.00;;;;;;;;;;5059915;28;20274;-76
2022/01/08 10:38:33;;;;;;;0.00;0.00;;;;;;;;;;5056227;28;20226;-77
2022/01/08 10:41:02;;;;;;;0.00;0.00;;;;;;;;;;5066902;28;20968;-75
2022/01/08 10:43:31;;;;;;;0.20;0.10;;;;;;;;;;5069682;28;20763;-76
2022/01/08 10:46:11;;;;;;;0.00;0.00;;;;;;;;;;5069438;28;20741;-75
2022/01/08 10:48:39;;;;;;;0.00;0.00;;;;;;;;;;5069727;28;21076;-73
2022/01/08 10:51:12;;;;;;;0.00;0.00;;;;;;;;;;5071184;28;20263;-73
2022/01/08 10:53:53;;;;;;;0.00;0.00;;;;;;;;;;5076608;28;20205;-74
2022/01/08 10:56:22;;;;;;;0.00;0.00;;;;;;;;;;5076479;28;20251;-75
2022/01/08 10:58:55;;;;;;;0.00;0.00;;;;;;;;;;5073782;28;20270;-75
2022/01/08 11:01:42;;;;;;;0.00;0.00;;;;;;;;;;5069574;28;20209;-75
2022/01/08 11:04:12;;;;;;;0.00;0.00;;;;;;;;;;5079574;28;20229;-75
2022/01/08 11:06:54;;;;;;;0.10;0.10;;;;;;;;;;5079450;28;20298;-74
2022/01/08 11:09:23;;;;;;;0.00;0.00;;;;;;;;;;5079344;28;20254;-73
2022/01/08 11:11:52;;;;;;;0.00;0.00;;;;;;;;;;5079409;28;20202;-73
2022/01/08 11:17:08;;;;;;;0.20;0.10;;;;;;;;;;5063402;28;20221;-74
2022/01/08 11:19:38;;;;;;;0.00;0.00;;;;;;;;;;5079181;28;20207;-75
2022/01/08 11:22:09;;;;;;;0.00;0.00;;;;;;;;;;5079319;28;20252;-76
2022/01/08 11:24:38;;;;;;;0.00;0.00;;;;;;;;;;5078912;28;20244;-74
2022/01/08 11:27:08;;;;;;;0.00;0.00;;;;;;;;;;5079593;28;20315;-74
2022/01/08 11:29:37;;;;;;;0.00;0.00;;;;;;;;;;5079252;28;20707;-75
2022/01/08 11:32:06;;;;;;;0.00;0.00;;;;;;;;;;5079263;28;20215;-75
2022/01/08 11:34:35;;;;;;;0.00;0.00;;;;;;;;;;5079566;28;20206;-73
2022/01/08 11:37:05;;;;;;;0.00;0.00;;;;;;;;;;5062203;28;20231;-73
2022/01/08 11:39:34;;;;;;;0.00;0.00;;;;;;;;;;5079120;28;20203;-74
2022/01/08 11:42:03;;;;;;;0.00;0.00;;;;;;;;;;5079040;28;20245;-72
2022/01/08 11:44:35;;;;;;;0.00;0.00;;;;;;;;;;5079333;28;20228;-72
2022/01/08 11:47:04;;;;;;;0.00;0.00;;;;;;;;;;5079096;28;20229;-72
2022/01/08 11:49:32;;;;;;;0.00;0.00;;;;;;;;;;5078846;28;20212;-73
2022/01/08 11:52:19;;;;;;;0.00;0.00;;;;;;;;;;5079475;28;20267;-74
2022/01/08 11:54:48;;;;;;;0.00;0.00;;;;;;;;;;5078814;28;20196;-73
2022/01/08 11:57:20;;;;;;;0.00;0.00;;;;;;;;;;5079141;28;20253;-72
2022/01/08 11:59:49;;;;;;;0.00;0.00;;;;;;;;;;5078857;28;20245;-74
2022/01/08 12:02:20;;;;;;;0.00;0.00;;;;;;;;;;5078825;28;20248;-74
2022/01/08 12:04:53;;;;;;;0.00;0.00;;;;;;;;;;5075624;28;20223;-72
2022/01/08 12:07:26;;;;;;;0.00;0.00;;;;;;;;;;5055936;28;20597;-74
2022/01/08 12:10:02;;;;;;;0.00;0.00;;;;;;;;;;5073249;28;20199;-74
2022/01/08 12:12:42;;;;;;;0.00;0.00;;;;;;;;;;5076045;28;20654;-73
2022/01/08 12:15:11;;;;;;;0.00;0.00;;;;;;;;;;5076256;28;20574;-73
2022/01/08 12:17:55;;;;;;;0.00;0.00;;;;;;;;;;5075624;28;20218;-74
2022/01/08 12:20:40;;;;;;;0.00;0.00;;;;;;;;;;5075428;28;20658;-74
2022/01/08 12:23:26;;;;;;;0.00;0.00;;;;;;;;;;5075279;28;20266;-73
2022/01/08 12:25:56;;;;;;;0.00;0.00;;;;;;;;;;5075522;28;20223;-73
2022/01/08 12:28:41;;;;;;;0.00;0.00;;;;;;;;;;5075311;28;20623;-74
2022/01/08 12:31:24;;;;;;;0.00;0.00;;;;;;;;;;5075106;28;20191;-74
2022/01/08 12:34:15;;;;;;;0.00;0.00;;;;;;;;;;5073816;28;20215;-72
2022/01/08 12:36:51;;;;;;;0.00;0.00;;;;;;;;;;5075327;28;20210;-72
2022/01/08 12:39:24;;;;;;;0.00;0.00;;;;;;;;;;5074942;28;20283;-74
2022/01/08 12:42:13;;;;;;;0.10;0.10;;;;;;;;;;5074362;28;20199;-74
2022/01/08 12:44:42;;;;;;;0.00;0.00;;;;;;;;;;5074899;28;20695;-73
2022/01/08 12:47:11;;;;;;;0.53;0.40;;;;;;;;;;5074752;28;20214;-73
2022/01/08 12:49:39;;;;;;;0.10;0.10;;;;;;;;;;5075045;28;20610;-72
2022/01/08 12:52:09;;;;;;;0.00;0.00;;;;;;;;;;5074784;28;20297;-74
2022/01/08 12:54:38;;;;;;;0.20;0.20;;;;;;;;;;5074954;28;20279;-72
2022/01/08 12:57:08;;;;;;;0.00;0.00;;;;;;;;;;5075095;28;20224;-71
2022/01/08 12:59:41;;;;;;;0.20;0.10;;;;;;;;;;5074796;28;20203;-73
2022/01/08 13:02:10;;;;;;;1.27;0.30;;;;;;;;;;5072220;28;20208;-72
2022/01/08 13:04:40;;;;;;;0.00;0.00;;;;;;;;;;5074177;28;20204;-72
2022/01/08 13:07:09;;;;;;;0.00;0.00;;;;;;;;;;5073781;28;20273;-72
2022/01/08 13:09:38;;;;;;;0.00;0.00;;;;;;;;;;5074203;28;20212;-72
2022/01/08 13:12:07;;;;;;;0.00;0.00;;;;;;;;;;5072232;28;20208;-72
2022/01/08 13:14:36;;;;;;;0.00;0.00;;;;;;;;;;5069242;28;20253;-72
2022/01/08 13:17:05;;;;;;;0.00;0.00;;;;;;;;;;5062702;28;20233;-72
2022/01/08 13:19:34;;;;;;;0.00;0.00;;;;;;;;;;5068539;28;20204;-74
2022/01/08 13:22:04;;;;;;;0.00;0.00;;;;;;;;;;5078607;28;20664;-73
2022/01/08 13:24:34;;;;;;;0.00;0.00;;;;;;;;;;5074427;28;20556;-72
2022/01/08 13:27:03;;;;;;;0.00;0.00;;;;;;;;;;5080821;28;20218;-72
2022/01/08 13:29:33;;;;;;;0.00;0.00;;;;;;;;;;4719488;28;10000261;-74
2022/01/08 13:32:04;;;;;;;0.00;0.00;;;;;;;;;;5070400;28;20674;-72
2022/01/08 13:34:34;;;;;;;0.00;0.00;;;;;;;;;;5066473;28;20289;-72
2022/01/08 13:37:05;;;;;;;0.00;0.00;;;;;;;;;;5068908;28;20221;-73
2022/01/08 13:39:35;;;;;;;0.00;0.00;;;;;;;;;;5068698;28;20215;-72
2022/01/08 13:42:10;;;;;;;0.00;0.00;;;;;;;;;;5069548;28;20273;-72
2022/01/08 13:44:39;;;;;;;0.00;0.00;;;;;;;;;;5074934;28;20728;-73
2022/01/08 13:47:19;;;;;;;0.00;0.00;;;;;;;;;;5070823;28;20256;-74
2022/01/08 13:49:48;;;;;;;0.00;0.00;;;;;;;;;;5051158;28;20597;-75
2022/01/08 13:52:22;;;;;;;0.00;0.00;;;;;;;;;;5065237;28;20830;-75
2022/01/08 13:54:50;;;;;;;0.00;0.00;;;;;;;;;;5063265;28;20196;-74
2022/01/08 13:57:20;;;;;;;0.00;0.00;;;;;;;;;;5061344;28;20285;-72
2022/01/08 13:59:48;;;;;;;0.00;0.00;;;;;;;;;;5068782;28;20261;-73
2022/01/08 14:02:18;;;;;;;0.00;0.00;;;;;;;;;;5061590;28;20694;-72
2022/01/08 14:04:47;;;;;;;0.00;0.00;;;;;;;;;;5069349;28;20256;-73
2022/01/08 14:07:15;;;;;;;0.00;0.00;;;;;;;;;;5069857;28;20264;-72
2022/01/08 14:09:58;;;;;;;0.00;0.00;;;;;;;;;;5069751;28;20271;-72
2022/01/08 14:12:27;;;;;;;0.00;0.00;;;;;;;;;;5079536;28;20332;-72
2022/01/08 14:14:56;;;;;;;0.00;0.00;;;;;;;;;;5069792;28;20227;-72
2022/01/08 14:17:30;;;;;;;0.00;0.00;;;;;;;;;;5078375;28;20214;-74
2022/01/08 14:19:58;;;;;;;0.00;0.00;;;;;;;;;;5072667;28;20199;-73
2022/01/08 14:22:28;;;;;;;0.00;0.00;;;;;;;;;;5073311;28;20205;-74
2022/01/08 14:24:58;;;;;;;0.00;0.00;;;;;;;;;;5069313;28;20196;-72
2022/01/08 14:27:27;;;;;;;0.00;0.00;;;;;;;;;;5066716;28;20222;-72
2022/01/08 14:30:11;;;;;;;0.00;0.00;;;;;;;;;;5059225;28;20267;-72
2022/01/08 14:32:41;;;;;;;0.00;0.00;;;;;;;;;;5061032;28;20614;-74
2022/01/08 14:35:10;;;;;;;0.00;0.00;;;;;;;;;;5069799;28;20195;-72
2022/01/08 14:37:42;;;;;;;0.00;0.00;;;;;;;;;;5078518;28;20230;-74
2022/01/08 14:40:25;;;;;;;0.00;0.00;;;;;;;;;;5049461;28;20207;-72
2022/01/08 14:42:57;;;;;;;0.00;0.00;;;;;;;;;;5070502;28;20561;-74
2022/01/08 14:45:26;;;;;;;0.00;0.00;;;;;;;;;;5090080;28;20239;-74
2022/01/08 14:47:57;;;;;;;0.00;0.00;;;;;;;;;;5078504;28;20216;-73
2022/01/08 14:50:28;;;;;;;0.00;0.00;;;;;;;;;;5067011;28;20298;-72
2022/01/08 14:53:00;;;;;;;0.00;0.00;;;;;;;;;;5065078;28;20209;-71
2022/01/08 14:55:33;;;;;;;0.00;0.00;;;;;;;;;;5062749;28;20203;-74
2022/01/08 14:58:01;;;;;;;0.00;0.00;;;;;;;;;;5049623;28;20786;-74
2022/01/08 15:00:32;;;;;;;0.00;0.00;;;;;;;;;;5063773;28;20679;-73
2022/01/08 15:03:03;;;;;;;0.00;0.00;;;;;;;;;;5080384;28;20214;-72
2022/01/08 15:05:32;;;;;;;0.00;0.00;;;;;;;;;;5065606;28;20204;-72
2022/01/08 15:08:01;;;;;;;0.00;0.00;;;;;;;;;;5073222;28;20226;-73
2022/01/08 15:10:30;;;;;;;0.00;0.00;;;;;;;;;;5069468;28;20217;-75
2022/01/08 15:12:59;;;;;;;0.00;0.00;;;;;;;;;;5072540;28;20209;-74
2022/01/08 15:15:28;;;;;;;0.00;0.00;;;;;;;;;;5067508;28;20673;-75
2022/01/08 15:17:56;;;;;;;0.00;0.00;;;;;;;;;;5068664;28;20223;-73
2022/01/08 15:20:32;;;;;;;0.00;0.00;;;;;;;;;;5070274;28;20211;-72
2022/01/08 15:23:03;;;;;;;0.00;0.00;;;;;;;;;;5065350;28;20208;-71